Time;durP1;ratioP1;P1;durP2;ratioP2;P2;SDS_P1;SDS_P2;PMS_P1;PMS_P2;Temp;Humidity;BMP_temperature;BMP_pressure;BME280_temperature;BME280_humidity;BME280_pressure;Samples;Min_cycle;Max_cycle;Signal;HPM_P1;HPM_P2
2022/11/09 00:01:40;;;;;;;;;;;16.30;99.90;;;;;;7330476;19;109815;-76
2022/11/09 00:04:07;;;;;;;;;;;16.30;99.90;;;;;;7331191;19;113849;-76
2022/11/09 00:06:34;;;;;;;;;;;16.30;99.90;;;;;;7330345;19;108735;-77
2022/11/09 00:09:03;;;;;;;;;;;16.30;99.90;;;;;;7332902;19;111656;-77
2022/11/09 00:11:34;;;;;;;;;;;16.30;99.90;;;;;;7331129;19;109915;-77
2022/11/09 00:14:02;;;;;;;;;;;16.30;99.90;;;;;;7330464;19;109012;-77
2022/11/09 00:16:29;;;;;;;;;;;16.30;99.90;;;;;;7138947;19;3732495;-77
2022/11/09 00:18:56;;;;;;;;;;;16.30;99.90;;;;;;7332575;19;111497;-76
2022/11/09 00:21:23;;;;;;;;;;;16.30;99.90;;;;;;7338324;19;108768;-77
2022/11/09 00:23:51;;;;;;;;;;;16.20;99.90;;;;;;7331831;19;110396;-77
2022/11/09 00:26:18;;;;;;;;;;;16.20;99.90;;;;;;7333510;19;108523;-77
2022/11/09 00:28:45;;;;;;;;;;;16.20;99.90;;;;;;7335975;19;109510;-77
2022/11/09 00:31:14;;;;;;;;;;;16.20;99.90;;;;;;7339440;19;110476;-77
2022/11/09 00:33:40;;;;;;;;;;;16.20;99.90;;;;;;7339706;19;110330;-77
2022/11/09 00:36:10;;;;;;;;;;;16.20;99.90;;;;;;7339773;19;109376;-77
2022/11/09 00:38:39;;;;;;;;;;;16.10;99.90;;;;;;7339038;19;110396;-77
2022/11/09 00:41:07;;;;;;;;;;;16.10;99.90;;;;;;7345421;19;108357;-77
2022/11/09 00:43:34;;;;;;;;;;;16.10;99.90;;;;;;7341287;19;110372;-76
2022/11/09 00:46:01;;;;;;;;;;;16.10;99.90;;;;;;7339453;19;110033;-77
2022/11/09 00:48:28;;;;;;;;;;;16.10;99.90;;;;;;7339627;19;109210;-76
2022/11/09 00:50:55;;;;;;;;;;;16.00;99.90;;;;;;7339397;19;109631;-77
2022/11/09 00:53:23;;;;;;;;;;;16.00;99.90;;;;;;7336901;19;108978;-77
2022/11/09 00:55:57;;;;;;;;;;;15.90;99.90;;;;;;7341081;19;110011;-76
2022/11/09 00:58:25;;;;;;;;;;;16.00;99.90;;;;;;7338489;19;109070;-77
2022/11/09 01:00:52;;;;;;;;;;;15.90;99.90;;;;;;7337560;19;112097;-76
2022/11/09 01:03:19;;;;;;;;;;;15.90;99.90;;;;;;7344260;19;112101;-76
2022/11/09 01:05:47;;;;;;;;;;;15.90;99.90;;;;;;7338984;19;109706;-77
2022/11/09 01:08:14;;;;;;;;;;;15.90;99.90;;;;;;7336747;19;109591;-77
2022/11/09 01:10:45;;;;;;;;;;;15.90;99.90;;;;;;7335936;19;112785;-76
2022/11/09 01:13:13;;;;;;;;;;;16.00;99.90;;;;;;7338866;19;108452;-76
2022/11/09 01:15:41;;;;;;;;;;;15.90;99.90;;;;;;7337619;19;109612;-77
2022/11/09 01:18:09;;;;;;;;;;;15.90;99.90;;;;;;7339209;19;111168;-77
2022/11/09 01:20:40;;;;;;;;;;;15.90;99.90;;;;;;7337091;19;108309;-77
2022/11/09 01:23:07;;;;;;;;;;;15.90;99.90;;;;;;7337204;19;109057;-77
2022/11/09 01:25:34;;;;;;;;;;;16.00;99.90;;;;;;7341736;19;110888;-77
2022/11/09 01:28:01;;;;;;;;;;;16.00;99.90;;;;;;7339094;19;109413;-77
2022/11/09 01:30:28;;;;;;;;;;;16.00;99.90;;;;;;7337271;19;109981;-77
2022/11/09 01:32:55;;;;;;;;;;;16.00;99.90;;;;;;7337203;19;108540;-77
2022/11/09 01:35:22;;;;;;;;;;;15.90;99.90;;;;;;7335278;19;109448;-76
2022/11/09 01:37:49;;;;;;;;;;;15.90;99.90;;;;;;7336013;19;109394;-77
2022/11/09 01:40:16;;;;;;;;;;;15.90;99.90;;;;;;7334890;19;108947;-77
2022/11/09 01:42:43;;;;;;;;;;;15.90;99.90;;;;;;7334973;19;108481;-77
2022/11/09 01:45:16;;;;;;;;;;;15.90;99.90;;;;;;7336127;19;110674;-77
2022/11/09 01:47:44;;;;;;;;;;;15.80;99.90;;;;;;7339787;19;109355;-76
2022/11/09 01:50:12;;;;;;;;;;;15.80;99.90;;;;;;7337505;19;111261;-76
2022/11/09 01:52:41;;;;;;;;;;;15.80;99.90;;;;;;7335322;19;109538;-77
2022/11/09 01:55:12;;;;;;;;;;;15.80;99.90;;;;;;7336648;19;108524;-77
2022/11/09 01:57:42;;;;;;;;;;;15.80;99.90;;;;;;7335560;19;110684;-76
2022/11/09 02:00:11;;;;;;;;;;;15.70;99.90;;;;;;7337589;19;108975;-77
2022/11/09 02:02:39;;;;;;;;;;;15.80;99.90;;;;;;7336355;19;109941;-77
2022/11/09 02:05:09;;;;;;;;;;;15.70;99.90;;;;;;7337450;19;113733;-76
2022/11/09 02:07:36;;;;;;;;;;;15.70;99.90;;;;;;7336608;19;108704;-77
2022/11/09 02:10:07;;;;;;;;;;;15.70;99.90;;;;;;7340724;19;108652;-76
2022/11/09 02:12:34;;;;;;;;;;;15.60;99.90;;;;;;7334253;19;110025;-77
2022/11/09 02:15:03;;;;;;;;;;;15.60;99.90;;;;;;7335799;19;109514;-77
2022/11/09 02:17:31;;;;;;;;;;;15.60;99.90;;;;;;7336995;19;110401;-76
2022/11/09 02:19:58;;;;;;;;;;;15.60;99.90;;;;;;7337246;19;108832;-76
2022/11/09 02:22:25;;;;;;;;;;;15.60;99.90;;;;;;7335969;19;109476;-77
2022/11/09 02:24:52;;;;;;;;;;;15.60;99.90;;;;;;7336595;19;111044;-77
2022/11/09 02:27:22;;;;;;;;;;;15.60;99.90;;;;;;7335135;19;109201;-77
2022/11/09 02:29:50;;;;;;;;;;;15.60;99.90;;;;;;7340621;19;110403;-76
2022/11/09 02:32:21;;;;;;;;;;;15.60;99.90;;;;;;7335155;19;109206;-76
2022/11/09 02:34:48;;;;;;;;;;;15.60;99.90;;;;;;7334664;19;110964;-76
2022/11/09 02:37:24;;;;;;;;;;;15.60;99.90;;;;;;7335885;19;114178;-76
2022/11/09 02:39:52;;;;;;;;;;;15.60;99.90;;;;;;7335321;19;109197;-76
2022/11/09 02:42:19;;;;;;;;;;;15.60;99.90;;;;;;7336904;19;109438;-77
2022/11/09 02:44:49;;;;;;;;;;;15.60;99.90;;;;;;7334637;19;109091;-76
2022/11/09 02:47:16;;;;;;;;;;;15.60;99.90;;;;;;7336585;19;110151;-77
2022/11/09 02:49:43;;;;;;;;;;;15.50;99.90;;;;;;7334805;19;111132;-76
2022/11/09 02:52:10;;;;;;;;;;;15.50;99.90;;;;;;7339351;19;110360;-76
2022/11/09 02:54:37;;;;;;;;;;;15.50;99.90;;;;;;7334185;19;109372;-76
2022/11/09 02:57:04;;;;;;;;;;;15.40;99.90;;;;;;7335291;19;109442;-76
2022/11/09 02:59:31;;;;;;;;;;;15.40;99.90;;;;;;7335195;19;109274;-77
2022/11/09 03:01:58;;;;;;;;;;;15.40;99.90;;;;;;7333512;19;108556;-76
2022/11/09 03:04:25;;;;;;;;;;;15.40;99.90;;;;;;7335004;19;113591;-76
2022/11/09 03:06:51;;;;;;;;;;;15.40;99.90;;;;;;7333736;19;114058;-76
2022/11/09 03:09:19;;;;;;;;;;;15.40;99.90;;;;;;7335707;19;110348;-77
2022/11/09 03:11:46;;;;;;;;;;;15.40;99.90;;;;;;7334349;19;110148;-77
2022/11/09 03:14:12;;;;;;;;;;;15.40;99.90;;;;;;7339453;19;108806;-76
2022/11/09 03:16:40;;;;;;;;;;;15.40;99.90;;;;;;7332773;19;109423;-77
2022/11/09 03:19:13;;;;;;;;;;;15.30;99.90;;;;;;7333941;19;109894;-76
2022/11/09 03:21:40;;;;;;;;;;;15.30;99.90;;;;;;7336177;19;109653;-76
2022/11/09 03:24:07;;;;;;;;;;;15.40;99.90;;;;;;7335051;19;110521;-77
2022/11/09 03:26:34;;;;;;;;;;;15.40;99.90;;;;;;7334939;19;109515;-76
2022/11/09 03:29:01;;;;;;;;;;;15.30;99.90;;;;;;7335233;19;109610;-77
2022/11/09 03:31:28;;;;;;;;;;;15.30;99.90;;;;;;7334691;19;111247;-77
2022/11/09 03:33:55;;;;;;;;;;;15.30;99.90;;;;;;7333421;19;108747;-76
2022/11/09 03:36:22;;;;;;;;;;;15.20;99.90;;;;;;7338962;19;109610;-76
2022/11/09 03:38:49;;;;;;;;;;;15.20;99.90;;;;;;7331646;19;110461;-77
2022/11/09 03:41:16;;;;;;;;;;;15.20;99.90;;;;;;7333538;19;109267;-76
2022/11/09 03:43:42;;;;;;;;;;;15.20;99.90;;;;;;7333214;19;109665;-76
2022/11/09 03:46:09;;;;;;;;;;;15.20;99.90;;;;;;7336343;19;109719;-78
2022/11/09 03:48:36;;;;;;;;;;;15.10;99.90;;;;;;7332307;19;109698;-76
2022/11/09 03:51:03;;;;;;;;;;;15.10;99.90;;;;;;7333202;19;110625;-77
2022/11/09 03:53:30;;;;;;;;;;;15.10;99.90;;;;;;7335390;19;108660;-76
2022/11/09 03:55:57;;;;;;;;;;;15.10;99.90;;;;;;7332711;19;112296;-77
2022/11/09 03:58:24;;;;;;;;;;;15.10;99.90;;;;;;7338199;19;109838;-77
2022/11/09 04:00:51;;;;;;;;;;;15.00;99.90;;;;;;7332423;19;109680;-76
2022/11/09 04:03:18;;;;;;;;;;;15.00;99.90;;;;;;7335290;19;112695;-78
2022/11/09 04:05:45;;;;;;;;;;;15.00;99.90;;;;;;7340528;19;109181;-76
2022/11/09 04:08:12;;;;;;;;;;;14.90;99.90;;;;;;7341715;19;109259;-76
2022/11/09 04:10:39;;;;;;;;;;;14.90;99.90;;;;;;7338469;19;110656;-77
2022/11/09 04:13:06;;;;;;;;;;;14.90;99.90;;;;;;7340804;19;108605;-77
2022/11/09 04:15:33;;;;;;;;;;;14.90;99.90;;;;;;7340592;19;110866;-76
2022/11/09 04:18:01;;;;;;;;;;;14.90;99.90;;;;;;7339688;19;112583;-76
2022/11/09 04:20:29;;;;;;;;;;;14.90;99.90;;;;;;7346901;19;108399;-76
2022/11/09 04:22:57;;;;;;;;;;;14.80;99.90;;;;;;7338635;19;110275;-77
2022/11/09 04:25:24;;;;;;;;;;;14.80;99.90;;;;;;7341271;19;108864;-76
2022/11/09 04:27:55;;;;;;;;;;;14.80;99.90;;;;;;7340851;19;109745;-76
2022/11/09 04:30:23;;;;;;;;;;;14.80;99.90;;;;;;7340351;19;109397;-77
2022/11/09 04:32:50;;;;;;;;;;;14.80;99.90;;;;;;7338168;19;109384;-77
2022/11/09 04:35:17;;;;;;;;;;;14.80;99.90;;;;;;7339055;19;111079;-77
2022/11/09 04:37:51;;;;;;;;;;;14.70;99.90;;;;;;7340730;19;110177;-77
2022/11/09 04:40:18;;;;;;;;;;;14.70;99.90;;;;;;7342350;19;108471;-77
2022/11/09 04:42:45;;;;;;;;;;;14.70;99.90;;;;;;7338743;19;109973;-77
2022/11/09 04:45:12;;;;;;;;;;;14.70;99.90;;;;;;7337626;19;109149;-78
2022/11/09 04:47:39;;;;;;;;;;;14.70;99.90;;;;;;7337467;19;112220;-79
2022/11/09 04:50:06;;;;;;;;;;;14.60;99.90;;;;;;7339465;19;113202;-78
2022/11/09 04:52:33;;;;;;;;;;;14.60;99.90;;;;;;7338751;19;108533;-77
2022/11/09 04:55:00;;;;;;;;;;;14.60;99.90;;;;;;7339098;19;108950;-79
2022/11/09 04:57:27;;;;;;;;;;;14.60;99.90;;;;;;7339149;19;111619;-80
2022/11/09 04:59:54;;;;;;;;;;;14.50;99.90;;;;;;7337862;19;108862;-77
2022/11/09 05:02:21;;;;;;;;;;;14.50;99.90;;;;;;7342620;19;112684;-78
2022/11/09 05:04:48;;;;;;;;;;;14.50;99.90;;;;;;7337880;19;108702;-78
2022/11/09 05:07:15;;;;;;;;;;;14.50;99.90;;;;;;7340716;19;108864;-77
2022/11/09 05:09:42;;;;;;;;;;;14.40;99.90;;;;;;7336832;19;110556;-77
2022/11/09 05:12:10;;;;;;;;;;;14.40;99.90;;;;;;7338466;19;109758;-77
2022/11/09 05:14:36;;;;;;;;;;;14.40;99.90;;;;;;7337675;19;109760;-77
2022/11/09 05:19:29;;;;;;;;;;;14.40;99.90;;;;;;7334530;19;132752;-77
2022/11/09 05:23:57;;;;;;;;;;;14.30;99.90;;;;;;7336017;19;110769;-77
2022/11/09 05:24:43;;;;;;;;;;;14.30;99.90;;;;;;7342555;19;110316;-78
2022/11/09 05:27:10;;;;;;;;;;;14.30;99.90;;;;;;7341078;19;109459;-78
2022/11/09 05:29:36;;;;;;;;;;;14.30;99.90;;;;;;7336421;19;109244;-78
2022/11/09 05:32:03;;;;;;;;;;;14.20;99.90;;;;;;7336352;19;108440;-78
2022/11/09 05:34:31;;;;;;;;;;;14.30;99.90;;;;;;7337821;19;109546;-77
2022/11/09 05:36:58;;;;;;;;;;;14.20;99.90;;;;;;7335811;19;110320;-78
2022/11/09 05:39:29;;;;;;;;;;;14.20;99.90;;;;;;7338822;19;108502;-78
2022/11/09 05:41:56;;;;;;;;;;;14.20;99.90;;;;;;7336677;19;110525;-77
2022/11/09 05:44:23;;;;;;;;;;;14.10;99.90;;;;;;7338982;19;108590;-77
2022/11/09 05:46:50;;;;;;;;;;;14.10;99.90;;;;;;7340891;19;108752;-77
2022/11/09 05:49:17;;;;;;;;;;;14.10;99.90;;;;;;7338306;19;112536;-77
2022/11/09 05:51:44;;;;;;;;;;;14.10;99.90;;;;;;7336369;19;110498;-77
2022/11/09 05:54:11;;;;;;;;;;;14.10;99.90;;;;;;7338241;19;109978;-77
2022/11/09 05:56:37;;;;;;;;;;;14.10;99.90;;;;;;7335984;19;114475;-77
2022/11/09 05:59:04;;;;;;;;;;;14.10;99.90;;;;;;7337026;19;108643;-77
2022/11/09 06:01:32;;;;;;;;;;;14.10;99.90;;;;;;7337032;19;110541;-77
2022/11/09 06:03:58;;;;;;;;;;;14.10;99.90;;;;;;7336342;19;112659;-77
2022/11/09 06:06:25;;;;;;;;;;;14.00;99.90;;;;;;7337244;19;108513;-77
2022/11/09 06:08:52;;;;;;;;;;;14.00;99.90;;;;;;7342799;19;108869;-77
2022/11/09 06:11:20;;;;;;;;;;;13.90;99.90;;;;;;7338891;19;109155;-76
2022/11/09 06:13:50;;;;;;;;;;;14.00;99.90;;;;;;7337088;19;110300;-76
2022/11/09 06:16:17;;;;;;;;;;;13.90;99.90;;;;;;7335532;19;111065;-77
2022/11/09 06:18:44;;;;;;;;;;;13.90;99.90;;;;;;7333766;19;110292;-77
2022/11/09 06:21:11;;;;;;;;;;;13.90;99.90;;;;;;7332182;19;112624;-76
2022/11/09 06:23:38;;;;;;;;;;;13.90;99.90;;;;;;7332960;19;111993;-77
2022/11/09 06:26:07;;;;;;;;;;;13.80;99.90;;;;;;7336214;19;108338;-77
2022/11/09 06:28:36;;;;;;;;;;;13.80;99.90;;;;;;7336093;19;109787;-76
2022/11/09 06:31:04;;;;;;;;;;;13.80;99.90;;;;;;7343037;19;109307;-77
2022/11/09 06:33:31;;;;;;;;;;;13.80;99.90;;;;;;7337330;19;112503;-77
2022/11/09 06:35:59;;;;;;;;;;;13.70;99.90;;;;;;7336820;19;111023;-76
2022/11/09 06:38:26;;;;;;;;;;;13.70;99.90;;;;;;7335079;19;108468;-77
2022/11/09 06:40:53;;;;;;;;;;;13.70;99.90;;;;;;7335103;19;110121;-77
2022/11/09 06:43:21;;;;;;;;;;;13.70;99.90;;;;;;7336677;19;111120;-76
2022/11/09 06:45:48;;;;;;;;;;;13.70;99.90;;;;;;7336400;19;108541;-77
2022/11/09 06:48:15;;;;;;;;;;;13.60;99.90;;;;;;7336443;19;110036;-77
2022/11/09 06:50:42;;;;;;;;;;;13.60;99.90;;;;;;7340025;19;110127;-77
2022/11/09 06:53:11;;;;;;;;;;;13.60;99.90;;;;;;7335234;19;109226;-78
2022/11/09 06:55:38;;;;;;;;;;;13.60;99.90;;;;;;7332810;19;110658;-76
2022/11/09 06:58:06;;;;;;;;;;;13.50;99.90;;;;;;7336887;19;110567;-75
2022/11/09 07:00:33;;;;;;;;;;;13.60;99.90;;;;;;7335603;19;108419;-76
2022/11/09 07:03:00;;;;;;;;;;;13.50;99.90;;;;;;7335037;19;111978;-76
2022/11/09 07:05:27;;;;;;;;;;;13.50;99.90;;;;;;7336804;19;108890;-76
2022/11/09 07:07:55;;;;;;;;;;;13.50;99.90;;;;;;7336239;19;109114;-76
2022/11/09 07:10:22;;;;;;;;;;;13.50;99.90;;;;;;7335259;19;114465;-76
2022/11/09 07:12:49;;;;;;;;;;;13.50;99.90;;;;;;7337915;19;109472;-77
2022/11/09 07:15:17;;;;;;;;;;;13.40;99.90;;;;;;7336391;19;109909;-76
2022/11/09 07:17:44;;;;;;;;;;;13.40;99.90;;;;;;7332276;19;108463;-76
2022/11/09 07:20:13;;;;;;;;;;;13.40;99.90;;;;;;7334848;19;111830;-76
2022/11/09 07:22:40;;;;;;;;;;;13.50;99.90;;;;;;7334098;19;109084;-76
2022/11/09 07:25:09;;;;;;;;;;;13.50;99.90;;;;;;7334013;19;109261;-76
2022/11/09 07:27:36;;;;;;;;;;;13.50;99.90;;;;;;7326665;19;109931;-76
2022/11/09 07:30:03;;;;;;;;;;;13.50;99.90;;;;;;7331010;19;114160;-76
2022/11/09 07:32:37;;;;;;;;;;;13.60;99.90;;;;;;7334289;19;109400;-76
2022/11/09 07:35:24;;;;;;;;;;;13.60;99.90;;;;;;7339031;19;109932;-76
2022/11/09 07:37:51;;;;;;;;;;;13.60;99.90;;;;;;7330818;19;110837;-75
2022/11/09 07:40:18;;;;;;;;;;;13.60;99.90;;;;;;7333415;19;111072;-76
2022/11/09 07:42:45;;;;;;;;;;;13.60;99.90;;;;;;7332874;19;110602;-76
2022/11/09 07:45:12;;;;;;;;;;;13.60;99.90;;;;;;7333327;19;108460;-76
2022/11/09 07:47:39;;;;;;;;;;;13.60;99.90;;;;;;7335046;19;109304;-76
2022/11/09 07:50:06;;;;;;;;;;;13.60;99.90;;;;;;7334616;19;113607;-76
2022/11/09 07:52:33;;;;;;;;;;;13.70;99.90;;;;;;7332567;19;108941;-76
2022/11/09 07:54:59;;;;;;;;;;;13.70;99.90;;;;;;7334217;19;109447;-76
2022/11/09 07:57:26;;;;;;;;;;;13.70;99.90;;;;;;7339485;19;110292;-76
2022/11/09 07:59:53;;;;;;;;;;;13.70;99.90;;;;;;7332170;19;111097;-76
2022/11/09 08:02:20;;;;;;;;;;;13.70;99.90;;;;;;7333364;19;110207;-77
2022/11/09 08:04:47;;;;;;;;;;;13.70;99.90;;;;;;7333654;19;108336;-76
2022/11/09 08:07:14;;;;;;;;;;;13.70;99.90;;;;;;7333563;19;109883;-76
2022/11/09 08:09:41;;;;;;;;;;;13.80;99.90;;;;;;7333186;19;112546;-76
2022/11/09 08:12:08;;;;;;;;;;;13.80;99.90;;;;;;7331657;19;109128;-76
2022/11/09 08:14:35;;;;;;;;;;;13.80;99.90;;;;;;7333925;19;109194;-76
2022/11/09 08:17:02;;;;;;;;;;;13.80;99.90;;;;;;7333262;19;109555;-76
2022/11/09 08:19:29;;;;;;;;;;;13.90;99.90;;;;;;7339492;19;109378;-76
2022/11/09 08:21:56;;;;;;;;;;;14.00;99.90;;;;;;7331679;19;110339;-76
2022/11/09 08:24:23;;;;;;;;;;;14.00;99.90;;;;;;7332846;19;108340;-76
2022/11/09 08:26:50;;;;;;;;;;;14.00;99.90;;;;;;7333163;19;109420;-76
2022/11/09 08:29:17;;;;;;;;;;;14.10;99.90;;;;;;7330166;19;110465;-76
2022/11/09 08:31:44;;;;;;;;;;;14.10;99.90;;;;;;7329488;19;109945;-76
2022/11/09 08:34:13;;;;;;;;;;;14.10;99.90;;;;;;7333915;19;109712;-76
2022/11/09 08:36:39;;;;;;;;;;;14.10;99.90;;;;;;7327536;19;109221;-76
2022/11/09 08:39:07;;;;;;;;;;;14.20;99.90;;;;;;7329089;19;109684;-76
2022/11/09 08:41:34;;;;;;;;;;;14.20;99.90;;;;;;7335137;19;109279;-76
2022/11/09 08:44:01;;;;;;;;;;;14.20;99.90;;;;;;7332522;19;108434;-76
2022/11/09 08:46:28;;;;;;;;;;;14.20;99.90;;;;;;7331261;19;109278;-76
2022/11/09 08:48:55;;;;;;;;;;;14.30;99.90;;;;;;7329260;19;110428;-67
2022/11/09 08:51:22;;;;;;;;;;;14.40;99.90;;;;;;7339321;19;111168;-67
2022/11/09 08:53:50;;;;;;;;;;;14.40;99.90;;;;;;7339660;19;112577;-67
2022/11/09 08:56:17;;;;;;;;;;;14.40;99.90;;;;;;7338436;19;109559;-67
2022/11/09 08:58:45;;;;;;;;;;;14.40;99.90;;;;;;7338294;19;108332;-67
2022/11/09 09:01:12;;;;;;;;;;;14.40;99.90;;;;;;7342366;19;115162;-67
2022/11/09 09:03:43;;;;;;;;;;;14.40;99.90;;;;;;7338846;19;108712;-67
2022/11/09 09:06:10;;;;;;;;;;;14.40;99.90;;;;;;7342778;19;108714;-69
2022/11/09 09:08:38;;;;;;;;;;;14.40;99.90;;;;;;7336740;19;113058;-67
2022/11/09 09:11:05;;;;;;;;;;;14.50;99.90;;;;;;7337079;19;109103;-67
2022/11/09 09:13:32;;;;;;;;;;;14.50;99.90;;;;;;7339722;19;109609;-68
2022/11/09 09:16:13;;;;;;;;;;;14.60;99.90;;;;;;7338071;19;109594;-68
2022/11/09 09:18:40;;;;;;;;;;;14.60;99.90;;;;;;7340350;19;109028;-67
2022/11/09 09:21:08;;;;;;;;;;;14.60;99.90;;;;;;7339072;19;109776;-67
2022/11/09 09:23:35;;;;;;;;;;;14.60;99.90;;;;;;7343428;19;110720;-67
2022/11/09 09:26:03;;;;;;;;;;;14.70;99.90;;;;;;7338654;19;109079;-67
2022/11/09 09:28:30;;;;;;;;;;;14.70;99.90;;;;;;7338577;19;109328;-67
2022/11/09 09:30:58;;;;;;;;;;;14.80;99.90;;;;;;7339057;19;108368;-67
2022/11/09 09:33:25;;;;;;;;;;;14.90;99.90;;;;;;7337775;19;110631;-67
2022/11/09 09:35:56;;;;;;;;;;;15.00;99.90;;;;;;7337533;19;109140;-68
2022/11/09 09:38:26;;;;;;;;;;;15.00;99.90;;;;;;7338992;19;109752;-67
2022/11/09 09:40:58;;;;;;;;;;;15.10;99.90;;;;;;7335904;19;108913;-67
2022/11/09 09:43:41;;;;;;;;;;;15.20;99.90;;;;;;7337009;19;109173;-67
2022/11/09 09:46:24;;;;;;;;;;;15.20;99.90;;;;;;7344565;19;108588;-68
2022/11/09 09:48:58;;;;;;;;;;;15.20;99.90;;;;;;7340736;19;110420;-68
2022/11/09 09:51:41;;;;;;;;;;;15.30;99.90;;;;;;7343749;19;108659;-69
2022/11/09 09:54:15;;;;;;;;;;;15.40;99.90;;;;;;7341818;19;108371;-69
2022/11/09 09:56:44;;;;;;;;;;;15.40;99.90;;;;;;7335199;19;109187;-68
2022/11/09 09:59:14;;;;;;;;;;;15.50;99.90;;;;;;7337184;19;108928;-68
2022/11/09 10:01:42;;;;;;;;;;;15.50;99.90;;;;;;7335048;19;108443;-67
2022/11/09 10:04:14;;;;;;;;;;;15.50;99.90;;;;;;7337075;19;109909;-67
2022/11/09 10:07:02;;;;;;;;;;;15.60;99.90;;;;;;7337561;19;109558;-68
2022/11/09 10:09:35;;;;;;;;;;;15.60;99.90;;;;;;7342999;19;109480;-68
2022/11/09 10:12:11;;;;;;;;;;;15.70;99.90;;;;;;7338077;19;110065;-68
2022/11/09 10:14:44;;;;;;;;;;;15.80;99.90;;;;;;7335915;19;108496;-68
2022/11/09 10:17:20;;;;;;;;;;;15.80;99.90;;;;;;7336416;19;109914;-67
2022/11/09 10:19:50;;;;;;;;;;;15.90;99.90;;;;;;7335747;19;109036;-68
2022/11/09 10:22:46;;;;;;;;;;;16.00;99.90;;;;;;7333670;19;110965;-68
2022/11/09 10:25:17;;;;;;;;;;;15.90;99.90;;;;;;7334379;19;110070;-67
2022/11/09 10:27:59;;;;;;;;;;;15.90;99.90;;;;;;7337139;19;109063;-68
2022/11/09 10:30:27;;;;;;;;;;;15.80;99.90;;;;;;7337719;19;108963;-68
2022/11/09 10:33:15;;;;;;;;;;;15.80;99.90;;;;;;7339487;19;109360;-67
2022/11/09 10:35:51;;;;;;;;;;;15.90;99.90;;;;;;7334717;19;108268;-68
2022/11/09 10:38:24;;;;;;;;;;;15.90;99.90;;;;;;7334328;19;109951;-67
2022/11/09 10:41:03;;;;;;;;;;;15.90;99.90;;;;;;7334857;19;108846;-67
2022/11/09 10:43:30;;;;;;;;;;;15.80;99.90;;;;;;7336931;19;109301;-67
2022/11/09 10:45:59;;;;;;;;;;;15.80;99.90;;;;;;7335048;19;111052;-68
2022/11/09 10:48:30;;;;;;;;;;;15.70;99.90;;;;;;7335474;19;108447;-68
2022/11/09 10:50:57;;;;;;;;;;;15.70;99.90;;;;;;7336992;19;111639;-68
2022/11/09 10:53:25;;;;;;;;;;;15.70;99.90;;;;;;7336183;19;110286;-68
2022/11/09 10:56:12;;;;;;;;;;;15.80;99.90;;;;;;7341781;19;108455;-67
2022/11/09 10:58:48;;;;;;;;;;;15.80;99.90;;;;;;7335995;19;109947;-67
2022/11/09 11:01:19;;;;;;;;;;;15.80;99.90;;;;;;7334354;19;109975;-68
2022/11/09 11:03:50;;;;;;;;;;;15.80;99.90;;;;;;7335773;19;108898;-67
2022/11/09 11:06:17;;;;;;;;;;;15.70;99.90;;;;;;7332478;19;110167;-68
2022/11/09 11:08:48;;;;;;;;;;;15.80;99.90;;;;;;7334656;19;109270;-68
2022/11/09 11:11:17;;;;;;;;;;;15.80;99.90;;;;;;7333657;19;108891;-67
2022/11/09 11:14:05;;;;;;;;;;;15.80;99.90;;;;;;7335691;19;109122;-67
2022/11/09 11:16:33;;;;;;;;;;;15.80;99.90;;;;;;7341049;19;108942;-67
2022/11/09 11:19:01;;;;;;;;;;;15.80;99.90;;;;;;7336677;19;113285;-68
2022/11/09 11:21:28;;;;;;;;;;;15.80;99.90;;;;;;7332852;19;108853;-67
2022/11/09 11:24:13;;;;;;;;;;;15.90;99.90;;;;;;7333468;19;109843;-67
2022/11/09 11:26:51;;;;;;;;;;;16.00;99.90;;;;;;7334726;19;109161;-68
2022/11/09 11:29:18;;;;;;;;;;;16.00;99.90;;;;;;7337219;19;108410;-67
2022/11/09 11:31:45;;;;;;;;;;;16.00;99.90;;;;;;7332663;19;109092;-68
2022/11/09 11:34:12;;;;;;;;;;;16.00;99.90;;;;;;7337517;19;115780;-67
2022/11/09 11:37:20;;;;;;;;;;;16.00;99.90;;;;;;7334590;19;109929;-67
2022/11/09 11:40:09;;;;;;;;;;;16.00;99.90;;;;;;7337926;19;110583;-68
2022/11/09 11:42:43;;;;;;;;;;;15.90;99.90;;;;;;7331893;19;110488;-68
2022/11/09 11:45:32;;;;;;;;;;;15.90;99.90;;;;;;7335713;19;108782;-67
2022/11/09 11:48:10;;;;;;;;;;;15.90;99.90;;;;;;7335791;19;110205;-67
2022/11/09 11:50:42;;;;;;;;;;;15.80;99.90;;;;;;7333554;19;111694;-67
2022/11/09 11:53:12;;;;;;;;;;;15.70;99.90;;;;;;7332397;19;110737;-67
2022/11/09 11:55:53;;;;;;;;;;;15.70;99.90;;;;;;7333315;19;110553;-67
2022/11/09 11:58:42;;;;;;;;;;;15.70;99.90;;;;;;7329342;19;110286;-67
2022/11/09 12:01:15;;;;;;;;;;;15.70;99.90;;;;;;7328644;19;109435;-70
2022/11/09 12:03:51;;;;;;;;;;;15.80;99.90;;;;;;7333210;19;110253;-68
2022/11/09 12:06:18;;;;;;;;;;;15.80;99.90;;;;;;7330936;19;109020;-67
2022/11/09 12:09:03;;;;;;;;;;;15.80;99.90;;;;;;7327019;19;109791;-68
2022/11/09 12:11:38;;;;;;;;;;;15.80;99.90;;;;;;7328769;19;108665;-67
2022/11/09 12:14:11;;;;;;;;;;;15.90;99.90;;;;;;7332107;19;109167;-67
2022/11/09 12:16:50;;;;;;;;;;;15.90;99.90;;;;;;7333314;19;109472;-67
2022/11/09 12:19:30;;;;;;;;;;;15.90;99.90;;;;;;7336208;19;108615;-67
2022/11/09 12:22:07;;;;;;;;;;;16.00;99.90;;;;;;7334928;19;109298;-68
2022/11/09 12:24:41;;;;;;;;;;;16.00;99.90;;;;;;7335342;19;110476;-68
2022/11/09 12:27:26;;;;;;;;;;;16.10;99.90;;;;;;7346379;19;108387;-67
2022/11/09 12:30:22;;;;;;;;;;;16.20;99.90;;;;;;7340686;19;109201;-68
2022/11/09 12:32:58;;;;;;;;;;;16.20;99.90;;;;;;7340132;19;108659;-68
2022/11/09 12:35:34;;;;;;;;;;;16.20;99.90;;;;;;7340476;19;108579;-67
2022/11/09 12:38:01;;;;;;;;;;;16.20;99.90;;;;;;7339999;19;110749;-68
2022/11/09 12:40:31;;;;;;;;;;;16.20;99.90;;;;;;7340538;19;108739;-68
2022/11/09 12:43:04;;;;;;;;;;;16.20;99.90;;;;;;7340812;19;109918;-67
2022/11/09 12:45:32;;;;;;;;;;;16.10;99.90;;;;;;7339940;19;109779;-67
2022/11/09 12:48:19;;;;;;;;;;;16.10;99.90;;;;;;7339307;19;108407;-68
2022/11/09 12:50:47;;;;;;;;;;;16.00;99.90;;;;;;7343168;19;108998;-67
2022/11/09 12:53:15;;;;;;;;;;;16.00;99.90;;;;;;7341315;19;109668;-67
2022/11/09 12:55:48;;;;;;;;;;;16.00;99.90;;;;;;7337773;19;112694;-68
2022/11/09 12:58:22;;;;;;;;;;;15.90;99.90;;;;;;7340410;19;110408;-68
2022/11/09 13:00:51;;;;;;;;;;;15.90;99.90;;;;;;7337876;19;108888;-68
2022/11/09 13:03:25;;;;;;;;;;;15.80;99.90;;;;;;7338432;19;110623;-68
2022/11/09 13:06:08;;;;;;;;;;;16.00;99.90;;;;;;7335498;19;109411;-69
2022/11/09 13:08:35;;;;;;;;;;;16.00;99.90;;;;;;7341474;19;110230;-69
2022/11/09 13:11:19;;;;;;;;;;;16.10;99.90;;;;;;7343139;19;109109;-68
2022/11/09 13:13:46;;;;;;;;;;;16.20;99.90;;;;;;7338183;19;108779;-67
2022/11/09 13:16:19;;;;;;;;;;;16.30;99.90;;;;;;7340192;19;109335;-68
2022/11/09 13:18:49;;;;;;;;;;;16.40;99.90;;;;;;7336665;19;109153;-68
2022/11/09 13:21:22;;;;;;;;;;;16.50;99.90;;;;;;7338365;19;108998;-68
2022/11/09 13:23:49;;;;;;;;;;;16.60;99.90;;;;;;7336762;19;110345;-85
2022/11/09 13:26:36;;;;;;;;;;;16.60;99.90;;;;;;7337394;19;109322;-86
2022/11/09 13:29:22;;;;;;;;;;;16.70;99.90;;;;;;7339787;19;109253;-86
2022/11/09 13:32:07;;;;;;;;;;;16.70;99.90;;;;;;7338828;19;109019;-85
2022/11/09 13:34:40;;;;;;;;;;;16.60;99.90;;;;;;7348825;19;112271;-86
2022/11/09 13:37:26;;;;;;;;;;;16.60;99.90;;;;;;7345638;19;109404;-86
2022/11/09 13:39:53;;;;;;;;;;;16.60;99.90;;;;;;7347961;19;110295;-87
2022/11/09 13:42:25;;;;;;;;;;;16.70;99.90;;;;;;7346813;19;108304;-87
2022/11/09 13:44:52;;;;;;;;;;;16.70;99.90;;;;;;7345449;19;108844;-86
2022/11/09 13:47:20;;;;;;;;;;;16.70;99.90;;;;;;7347645;19;110753;-87
2022/11/09 13:49:49;;;;;;;;;;;16.70;99.90;;;;;;7344596;19;108904;-86
2022/11/09 13:52:34;;;;;;;;;;;16.70;99.90;;;;;;7345548;19;109110;-87
2022/11/09 13:55:01;;;;;;;;;;;16.70;99.90;;;;;;7345167;19;113414;-88
2022/11/09 13:57:30;;;;;;;;;;;16.70;99.90;;;;;;7348347;19;108758;-86
2022/11/09 13:59:58;;;;;;;;;;;16.80;99.90;;;;;;7346275;19;110510;-88
2022/11/09 14:02:25;;;;;;;;;;;16.80;99.90;;;;;;7345710;19;108484;-87
2022/11/09 14:04:53;;;;;;;;;;;16.70;99.90;;;;;;7345610;19;109339;-87
2022/11/09 14:07:37;;;;;;;;;;;16.80;99.90;;;;;;7342578;19;109121;-86
2022/11/09 14:10:22;;;;;;;;;;;16.80;99.90;;;;;;7343280;19;108741;-88
2022/11/09 14:13:01;;;;;;;;;;;16.90;99.90;;;;;;7343208;19;109634;-87
2022/11/09 14:15:37;;;;;;;;;;;17.00;99.90;;;;;;7345324;19;110743;-86
2022/11/09 14:18:04;;;;;;;;;;;17.00;99.90;;;;;;7346049;19;108830;-87
2022/11/09 14:20:44;;;;;;;;;;;17.00;99.90;;;;;;7351459;19;111751;-87
2022/11/09 14:23:18;;;;;;;;;;;17.00;99.90;;;;;;7341165;19;108584;-88